Fonthida Naree — HSJR — position and weather

sailwx.info

Track history (hours):
 
Tides and Currents Weather Stations Pressure Air Temp Water Temp Dewpoint Dewpoint Depression Visibility Wind Speed Wind Dir Waves Ship Positions

Fonthida Naree

Last reported at 2015-Jun-13 11:22 UTC. Time now 2015-Jul-28 21:40 UTC.
Position N 35°52' W 025°24'.
Warning: this ship's position is 45 days out of date.

Length 170 m; draft 9.7 m.

Type: Cargo ship. MMSI: 567265000.

Date/timePositionNaut miles runAvg speedWind from/ knotsBaromVisibWave heightAir tempDewpointWater temp
2015-Jun-13 11:22N 35°52' W 025°24'1012.6
2015-Jun-13 10:33N 35°53' W 025°12'1212.2
2015-Jun-13 09:33N 35°55' W 024°57'1212.4
2015-Jun-13 08:33N 35°56' W 024°41'1212.5
2015-Jun-13 07:33N 35°57' W 024°26'  
2015-Jun-10 05:19N 35°57' W 005°35'11 9.8
2015-Jun-10 04:14N 36°02' W 005°23'6 8.3
2015-Jun-10 03:29N 36°08' W 005°22'0 0.3
2015-Jun-10 02:10N 36°08' W 005°22'0 0.0
2015-Jun-09 19:22N 36°08' W 005°22'2 2.4
2015-Jun-09 18:27N 36°06' W 005°22'3 2.7
2015-Jun-09 17:21N 36°05' W 005°19'5 5.0
2015-Jun-09 16:23N 36°06' W 005°13'1 1.3
2015-Jun-09 15:32N 36°05' W 005°14'1 0.7
2015-Jun-09 13:22N 36°06' W 005°12'0 0.3
2015-Jun-09 12:29N 36°06' W 005°12'11710.6
2015-Jun-09 01:22N 36°21' W 002°48'1112.9
2015-Jun-09 00:33N 36°23' W 002°35'1413.1
2015-Jun-08 23:29N 36°25' W 002°18'2613.0
2015-Jun-08 21:30N 36°30' W 001°46'2613.0
2015-Jun-08 19:29N 36°35' W 001°14'1312.9
2015-Jun-08 18:28N 36°37' W 000°58'1212.9
2015-Jun-08 17:33N 36°39' W 000°44'1313.1
2015-Jun-08 16:33N 36°43' W 000°28'1313.0
2015-Jun-08 15:33N 36°45' W 000°12'1312.8
2015-Jun-08 14:33N 36°47' E 000°04'4312.6
2015-Jun-08 11:08N 36°56' E 000°56'13412.6
2015-Jun-08 00:30N 37°19' E 003°42'1312.8
2015-Jun-07 23:32N 37°21' E 003°58'1913.1
2015-Jun-07 22:05N 37°23' E 004°21'4512.4
2015-Jun-07 18:27N 37°29' E 005°18'2513.4
2015-Jun-07 16:33N 37°33' E 005°49'1613.9
2015-Jun-07 15:23N 37°34' E 006°10'1513.7
2015-Jun-07 14:18N 37°36' E 006°28'14013.0
2015-Jun-07 03:33N 37°47' E 009°25'1312.8
2015-Jun-07 02:33N 37°43' E 009°41'1712.5
2015-Jun-07 01:13N 37°39' E 010°01'2011.9
2015-Jun-06 23:33N 37°38' E 010°26'1312.2
2015-Jun-06 22:30N 37°35' E 010°41'13012.8
2015-Jun-06 12:21N 36°46' E 013°12'1012.4
2015-Jun-06 11:33N 36°42' E 013°23'1212.4
2015-Jun-06 10:34N 36°39' E 013°38'1212.3
2015-Jun-06 09:33N 36°35' E 013°53'1312.6
2015-Jun-06 08:33N 36°31' E 014°08'1312.7
2015-Jun-06 07:32N 36°27' E 014°23'1212.5
2015-Jun-06 06:33N 36°25' E 014°38'46410.8
2015-Jun-04 11:24N 38°03' E 024°08'  
Track history (hours):
 
Tides and Currents Weather Stations Pressure Air Temp Water Temp Dewpoint Dewpoint Depression Visibility Wind Speed Wind Dir Waves Ship Positions

Fonthida Naree

Last reported at 2015-Jun-13 11:22 UTC. Time now 2015-Jul-28 21:40 UTC.
Position N 35°52' W 025°24'.
Warning: this ship's position is 45 days out of date.

Length 170 m; draft 9.7 m.

Type: Cargo ship. MMSI: 567265000.

Date/timePositionNaut miles runAvg speedWind from/ knotsBaromVisibWave heightAir tempDewpointWater temp
2015-Jun-13 11:22N 35°52' W 025°24'1012.6
2015-Jun-13 10:33N 35°53' W 025°12'1212.2
2015-Jun-13 09:33N 35°55' W 024°57'1212.4
2015-Jun-13 08:33N 35°56' W 024°41'1212.5
2015-Jun-13 07:33N 35°57' W 024°26'  
2015-Jun-10 05:19N 35°57' W 005°35'11 9.8
2015-Jun-10 04:14N 36°02' W 005°23'6 8.3
2015-Jun-10 03:29N 36°08' W 005°22'0 0.3
2015-Jun-10 02:10N 36°08' W 005°22'0 0.0
2015-Jun-09 19:22N 36°08' W 005°22'2 2.4
2015-Jun-09 18:27N 36°06' W 005°22'3 2.7
2015-Jun-09 17:21N 36°05' W 005°19'5 5.0
2015-Jun-09 16:23N 36°06' W 005°13'1 1.3
2015-Jun-09 15:32N 36°05' W 005°14'1 0.7
2015-Jun-09 13:22N 36°06' W 005°12'0 0.3
2015-Jun-09 12:29N 36°06' W 005°12'11710.6
2015-Jun-09 01:22N 36°21' W 002°48'1112.9
2015-Jun-09 00:33N 36°23' W 002°35'1413.1
2015-Jun-08 23:29N 36°25' W 002°18'2613.0
2015-Jun-08 21:30N 36°30' W 001°46'2613.0
2015-Jun-08 19:29N 36°35' W 001°14'1312.9
2015-Jun-08 18:28N 36°37' W 000°58'1212.9
2015-Jun-08 17:33N 36°39' W 000°44'1313.1
2015-Jun-08 16:33N 36°43' W 000°28'1313.0
2015-Jun-08 15:33N 36°45' W 000°12'1312.8
2015-Jun-08 14:33N 36°47' E 000°04'4312.6
2015-Jun-08 11:08N 36°56' E 000°56'13412.6
2015-Jun-08 00:30N 37°19' E 003°42'1312.8
2015-Jun-07 23:32N 37°21' E 003°58'1913.1
2015-Jun-07 22:05N 37°23' E 004°21'4512.4
2015-Jun-07 18:27N 37°29' E 005°18'2513.4
2015-Jun-07 16:33N 37°33' E 005°49'1613.9
2015-Jun-07 15:23N 37°34' E 006°10'1513.7
2015-Jun-07 14:18N 37°36' E 006°28'14013.0
2015-Jun-07 03:33N 37°47' E 009°25'1312.8
2015-Jun-07 02:33N 37°43' E 009°41'1712.5
2015-Jun-07 01:13N 37°39' E 010°01'2011.9
2015-Jun-06 23:33N 37°38' E 010°26'1312.2
2015-Jun-06 22:30N 37°35' E 010°41'13012.8
2015-Jun-06 12:21N 36°46' E 013°12'1012.4
2015-Jun-06 11:33N 36°42' E 013°23'1212.4
2015-Jun-06 10:34N 36°39' E 013°38'1212.3
2015-Jun-06 09:33N 36°35' E 013°53'1312.6
2015-Jun-06 08:33N 36°31' E 014°08'1312.7
2015-Jun-06 07:32N 36°27' E 014°23'1212.5
2015-Jun-06 06:33N 36°25' E 014°38'46410.8
2015-Jun-04 11:24N 38°03' E 024°08'  

Dump ship's entire track history